| time (UTC) | temp F | wind direction | speed knots | gust knots | rain 1hr in | rain 24hr in | rain mn in | humidity % | barometer mb |
| 20260508180236 | 68 | 250 | 1.7 | 1.7 | 0.00 | 0.00 | 0.00 | 53 | 1013.0 |
| 20260508175735 | 68 | 293 | 1.7 | 1.7 | 0.00 | 0.00 | 0.00 | 51 | 1013.0 |
| 20260508175236 | 68 | 262 | 1.7 | 3.5 | 0.00 | 0.00 | 0.00 | 50 | 1013.0 |
| 20260508174735 | 68 | 261 | 1.7 | 3.5 | 0.00 | 0.00 | 0.00 | 50 | 1013.0 |
| 20260508174235 | 67 | 271 | 2.6 | 2.6 | 0.00 | 0.00 | 0.00 | 53 | 1013.0 |
| 20260508173735 | 67 | 285 | 2.6 | 4.3 | 0.00 | 0.00 | 0.00 | 52 | 1013.0 |
| 20260508173235 | 67 | 214 | 0.0 | 1.7 | 0.00 | 0.00 | 0.00 | 56 | 1013.0 |
| 20260508172737 | 66 | 266 | 1.7 | 2.6 | 0.00 | 0.00 | 0.00 | 55 | 1013.0 |
| 20260508172236 | 66 | 274 | 1.7 | 4.3 | 0.00 | 0.00 | 0.00 | 53 | 1013.0 |
| 20260508171736 | 66 | 224 | 0.0 | 2.6 | 0.00 | 0.00 | 0.00 | 55 | 1013.0 |
| 20260508171235 | 65 | 213 | 0.9 | 1.7 | 0.00 | 0.00 | 0.00 | 57 | 1013.0 |
| 20260508170736 | 65 | 212 | 0.0 | 0.9 | 0.00 | 0.00 | 0.00 | 59 | 1014.0 |
| 20260508170236 | 65 | 252 | 0.9 | 0.9 | 0.00 | 0.00 | 0.00 | 56 | 1013.0 |
| 20260508165737 | 65 | 161 | 0.9 | 1.7 | 0.00 | 0.00 | 0.00 | 55 | 1014.0 |
| 20260508165236 | 65 | 181 | 0.0 | 1.7 | 0.00 | 0.00 | 0.00 | 57 | 1014.0 |
| 20260508164735 | 65 | 224 | 0.0 | 0.9 | 0.00 | 0.00 | 0.00 | 55 | 1014.0 |
| 20260508164236 | 64 | 224 | 0.0 | 0.9 | 0.00 | 0.00 | 0.00 | 56 | 1014.0 |
| 20260508163737 | 64 | 210 | 0.9 | 2.6 | 0.00 | 0.00 | 0.00 | 56 | 1014.0 |
| 20260508163235 | 63 | 205 | 0.0 | 0.9 | 0.00 | 0.00 | 0.00 | 59 | 1014.0 |
| 20260508162736 | 63 | 265 | 1.7 | 3.5 | 0.00 | 0.00 | 0.00 | 59 | 1014.0 |
| 20260508162235 | 63 | 209 | 0.0 | 0.9 | 0.00 | 0.00 | 0.00 | 59 | 1014.0 |
| 20260508161735 | 63 | 211 | 0.0 | 1.7 | 0.00 | 0.00 | 0.00 | 59 | 1014.0 |
| 20260508161237 | 63 | 195 | 0.0 | 0.9 | 0.00 | 0.00 | 0.00 | 61 | 1014.0 |
| 20260508160735 | 63 | 262 | 0.0 | 1.7 | 0.00 | 0.00 | 0.00 | 60 | 1014.0 |
| 20260508160236 | 63 | 243 | 0.0 | 1.7 | 0.00 | 0.00 | 0.00 | 60 | 1014.0 |
| 20260508155735 | 63 | 240 | 0.0 | 0.9 | 0.00 | 0.00 | 0.00 | 59 | 1014.0 |
| 20260508155236 | 63 | 208 | 0.0 | 0.9 | 0.00 | 0.00 | 0.00 | 60 | 1015.0 |
| 20260508154736 | 63 | 157 | 0.0 | 0.9 | 0.00 | 0.00 | 0.00 | 59 | 1015.0 |
| 20260508154236 | 63 | 242 | 0.0 | 1.7 | 0.00 | 0.00 | 0.00 | 59 | 1015.0 |
| 20260508153735 | 63 | 241 | 0.0 | 1.7 | 0.00 | 0.00 | 0.00 | 59 | 1015.0 |
| 20260508153235 | 62 | 253 | 1.7 | 2.6 | 0.00 | 0.00 | 0.00 | 58 | 1015.0 |
| 20260508152735 | 62 | 224 | 0.0 | 2.6 | 0.00 | 0.00 | 0.00 | 59 | 1015.0 |
| 20260508152235 | 62 | 230 | 0.0 | 1.7 | 0.00 | 0.00 | 0.00 | 59 | 1014.0 |
| 20260508151735 | 63 | 246 | 0.9 | 1.7 | 0.00 | 0.00 | 0.00 | 59 | 1015.0 |
| 20260508151235 | 62 | 202 | 0.0 | 1.7 | 0.00 | 0.00 | 0.00 | 59 | 1014.0 |
| 20260508150736 | 62 | 255 | 0.9 | 0.9 | 0.00 | 0.00 | 0.00 | 59 | 1015.0 |
| 20260508150235 | 62 | 255 | 0.9 | 2.6 | 0.00 | 0.00 | 0.00 | 59 | 1015.0 |
| 20260508145736 | 62 | 274 | 0.9 | 1.7 | 0.00 | 0.00 | 0.00 | 57 | 1015.0 |
| 20260508145235 | 62 | 245 | 4.3 | 4.3 | 0.00 | 0.00 | 0.00 | 57 | 1015.0 |
| 20260508144736 | 62 | 242 | 1.7 | 4.3 | 0.00 | 0.00 | 0.00 | 55 | 1015.0 |
| 20260508144235 | 63 | 271 | 0.0 | 1.7 | 0.00 | 0.00 | 0.00 | 56 | 1015.0 |
| 20260508143735 | 63 | 222 | 0.9 | 1.7 | 0.00 | 0.00 | 0.00 | 55 | 1015.0 |
| 20260508143236 | 64 | 284 | 1.7 | 3.5 | 0.00 | 0.00 | 0.00 | 54 | 1015.0 |
| 20260508142737 | 64 | 222 | 0.0 | 1.7 | 0.00 | 0.00 | 0.00 | 55 | 1015.0 |
| 20260508142236 | 65 | 247 | 1.7 | 3.5 | 0.00 | 0.00 | 0.00 | 52 | 1016.0 |
| 20260508141736 | 65 | 245 | 2.6 | 2.6 | 0.00 | 0.00 | 0.00 | 52 | 1015.0 |
| 20260508141236 | 65 | 281 | 1.7 | 2.6 | 0.00 | 0.00 | 0.00 | 52 | 1015.0 |
| 20260508140736 | 64 | 217 | 2.6 | 3.5 | 0.00 | 0.00 | 0.00 | 51 | 1015.0 |
| 20260508140238 | 64 | 259 | 3.5 | 4.3 | 0.00 | 0.00 | 0.00 | 53 | 1015.0 |
| 20260508135736 | 63 | 250 | 0.9 | 2.6 | 0.00 | 0.00 | 0.00 | 54 | 1015.0 |
| 20260508135235 | 63 | 224 | 2.6 | 2.6 | 0.00 | 0.00 | 0.00 | 55 | 1015.0 |
| 20260508134736 | 62 | 233 | 0.9 | 1.7 | 0.00 | 0.00 | 0.00 | 57 | 1015.0 |
| 20260508134235 | 61 | 199 | 0.9 | 1.7 | 0.00 | 0.00 | 0.00 | 57 | 1015.0 |
| 20260508133736 | 61 | 218 | 0.0 | 2.6 | 0.00 | 0.00 | 0.00 | 61 | 1015.0 |
| 20260508133237 | 60 | 223 | 0.9 | 1.7 | 0.00 | 0.00 | 0.00 | 61 | 1015.0 |
| 20260508132736 | 59 | 254 | 0.0 | 0.9 | 0.00 | 0.00 | 0.00 | 65 | 1015.0 |
| 20260508132237 | 59 | 218 | 0.0 | 0.9 | 0.00 | 0.00 | 0.00 | 66 | 1015.0 |
| 20260508131736 | 58 | 177 | 0.9 | 1.7 | 0.00 | 0.00 | 0.00 | 68 | 1015.0 |
| 20260508131236 | 57 | 142 | 0.0 | 1.7 | 0.00 | 0.00 | 0.00 | 69 | 1015.0 |
| 20260508130735 | 57 | 121 | 0.0 | 0.9 | 0.00 | 0.00 | 0.00 | 70 | 1015.0 |
| 20260508130236 | 56 | 249 | 0.0 | 0.9 | 0.00 | 0.00 | 0.00 | 70 | 1015.0 |
| 20260508125735 | 56 | 192 | 0.0 | 0.9 | 0.00 | 0.00 | 0.00 | 71 | 1015.0 |
| 20260508125235 | 55 | 173 | 0.9 | 1.7 | 0.00 | 0.00 | 0.00 | 73 | 1015.0 |
| 20260508124736 | 55 | 137 | 0.0 | 2.6 | 0.00 | 0.00 | 0.00 | 74 | 1015.0 |
| 20260508124235 | 54 | 132 | 0.9 | 1.7 | 0.00 | 0.00 | 0.00 | 72 | 1015.0 |
| 20260508123736 | 54 | 96 | 0.0 | 1.7 | 0.00 | 0.00 | 0.00 | 72 | 1015.0 |
| 20260508123235 | 54 | 135 | 0.0 | 1.7 | 0.00 | 0.00 | 0.00 | 72 | 1015.0 |
| 20260508122735 | 53 | 111 | 0.0 | 1.7 | 0.00 | 0.00 | 0.00 | 73 | 1015.0 |
| 20260508122236 | 53 | 132 | 2.6 | 2.6 | 0.00 | 0.00 | 0.00 | 74 | 1015.0 |
| 20260508121736 | 52 | 103 | 1.7 | 2.6 | 0.00 | 0.00 | 0.00 | 75 | 1015.0 |
| 20260508121236 | 51 | 152 | 0.0 | 1.7 | 0.00 | 0.00 | 0.00 | 76 | 1015.0 |
| 20260508120736 | 51 | 143 | 0.9 | 2.6 | 0.00 | 0.00 | 0.00 | 75 | 1015.0 |
| 20260508120235 | 51 | 162 | 0.0 | 1.7 | 0.00 | 0.00 | 0.00 | 75 | 1015.0 |
| 20260508115735 | 51 | 147 | 0.0 | 1.7 | 0.00 | 0.00 | 0.00 | 75 | 1015.0 |
| 20260508115235 | 51 | 155 | 0.9 | 2.6 | 0.00 | 0.00 | 0.00 | 75 | 1015.0 |
| 20260508114735 | 50 | 170 | 0.9 | 1.7 | 0.00 | 0.00 | 0.00 | 76 | 1015.0 |
| 20260508114235 | 50 | 149 | 0.0 | 2.6 | 0.00 | 0.00 | 0.00 | 76 | 1015.0 |
| 20260508113736 | 50 | 127 | 0.0 | 0.9 | 0.00 | 0.00 | 0.00 | 76 | 1015.0 |
| 20260508113236 | 50 | 148 | 0.0 | 1.7 | 0.00 | 0.00 | 0.00 | 76 | 1015.0 |
| 20260508112736 | 50 | 154 | 0.0 | 1.7 | 0.00 | 0.00 | 0.00 | 76 | 1015.0 |
| 20260508112235 | 49 | 117 | 0.9 | 1.7 | 0.00 | 0.00 | 0.00 | 75 | 1015.0 |
| 20260508111735 | 49 | 117 | 0.0 | 1.7 | 0.00 | 0.00 | 0.00 | 75 | 1015.0 |
| 20260508111236 | 49 | 134 | 0.9 | 2.6 | 0.00 | 0.00 | 0.00 | 75 | 1015.0 |
| 20260508110736 | 49 | 133 | 0.9 | 1.7 | 0.00 | 0.00 | 0.00 | 75 | 1015.0 |
| 20260508110235 | 49 | 127 | 0.9 | 2.6 | 0.00 | 0.00 | 0.00 | 74 | 1015.0 |
| 20260508105735 | 50 | 141 | 0.9 | 2.6 | 0.00 | 0.00 | 0.00 | 74 | 1014.0 |
| 20260508105235 | 50 | 133 | 1.7 | 1.7 | 0.00 | 0.00 | 0.00 | 73 | 1015.0 |
| 20260508104735 | 50 | 137 | 0.0 | 2.6 | 0.00 | 0.00 | 0.00 | 73 | 1014.0 |
| 20260508104236 | 49 | 134 | 1.7 | 1.7 | 0.00 | 0.00 | 0.00 | 73 | 1015.0 |
| 20260508103735 | 49 | 154 | 0.9 | 1.7 | 0.00 | 0.00 | 0.00 | 72 | 1015.0 |
| 20260508103236 | 49 | 129 | 0.0 | 2.6 | 0.00 | 0.00 | 0.00 | 73 | 1015.0 |
| 20260508102736 | 49 | 117 | 0.9 | 0.9 | 0.00 | 0.00 | 0.00 | 73 | 1015.0 |
| 20260508102236 | 48 | 134 | 0.0 | 1.7 | 0.00 | 0.00 | 0.00 | 73 | 1015.0 |
| 20260508101735 | 48 | 124 | 0.0 | 0.0 | 0.00 | 0.00 | 0.00 | 74 | 1015.0 |
| 20260508101235 | 48 | 142 | 0.0 | 1.7 | 0.00 | 0.00 | 0.00 | 74 | 1015.0 |
| 20260508100736 | 48 | 117 | 0.0 | 0.9 | 0.00 | 0.00 | 0.00 | 74 | 1015.0 |
| 20260508100235 | 48 | 116 | 0.0 | 0.9 | 0.00 | 0.00 | 0.00 | 74 | 1015.0 |
| 20260508095735 | 48 | 109 | 1.7 | 1.7 | 0.00 | 0.00 | 0.00 | 74 | 1015.0 |
| 20260508095235 | 48 | 129 | 0.0 | 0.0 | 0.00 | 0.00 | 0.00 | 75 | 1015.0 |
| 20260508094735 | 48 | 139 | 0.0 | 0.9 | 0.00 | 0.00 | 0.00 | 74 | 1015.0 |
| 20260508094235 | 48 | 121 | 0.0 | 1.7 | 0.00 | 0.00 | 0.00 | 75 | 1015.0 |
| 20260508093736 | 48 | 73 | 0.0 | 0.9 | 0.00 | 0.00 | 0.00 | 75 | 1015.0 |
| 20260508093236 | 48 | 136 | 0.0 | 0.0 | 0.00 | 0.00 | 0.00 | 74 | 1015.0 |
| 20260508092736 | 48 | 124 | 0.0 | 1.7 | 0.00 | 0.00 | 0.00 | 74 | 1015.0 |
| 20260508092235 | 49 | 135 | 0.0 | 1.7 | 0.00 | 0.00 | 0.00 | 73 | 1015.0 |
| 20260508091735 | 49 | 154 | 0.0 | 1.7 | 0.00 | 0.00 | 0.00 | 73 | 1015.0 |
| 20260508091236 | 49 | 120 | 0.0 | 1.7 | 0.00 | 0.00 | 0.00 | 73 | 1015.0 |
| 20260508090736 | 49 | 77 | 0.0 | 0.0 | 0.00 | 0.00 | 0.00 | 72 | 1015.0 |
| 20260508090235 | 49 | 98 | 0.0 | 1.7 | 0.00 | 0.00 | 0.00 | 72 | 1015.0 |
| 20260508085735 | 50 | 142 | 0.0 | 0.0 | 0.00 | 0.00 | 0.00 | 71 | 1015.0 |
| 20260508085235 | 50 | 129 | 0.0 | 1.7 | 0.00 | 0.00 | 0.00 | 71 | 1015.0 |
| 20260508084736 | 50 | 145 | 0.9 | 0.9 | 0.00 | 0.00 | 0.00 | 71 | 1015.0 |
| 20260508084236 | 50 | 142 | 0.0 | 1.7 | 0.00 | 0.00 | 0.00 | 70 | 1015.0 |
| 20260508083736 | 50 | 130 | 0.0 | 0.9 | 0.00 | 0.00 | 0.00 | 70 | 1015.0 |
| 20260508083235 | 50 | 124 | 0.0 | 1.7 | 0.00 | 0.00 | 0.00 | 69 | 1015.0 |
| 20260508082736 | 50 | 143 | 0.9 | 1.7 | 0.00 | 0.00 | 0.00 | 69 | 1015.0 |
| 20260508082236 | 50 | 147 | 1.7 | 1.7 | 0.00 | 0.00 | 0.00 | 69 | 1015.0 |
| 20260508081735 | 50 | 155 | 0.9 | 2.6 | 0.00 | 0.00 | 0.00 | 68 | 1015.0 |
| 20260508081235 | 50 | 143 | 0.9 | 1.7 | 0.00 | 0.00 | 0.00 | 68 | 1015.0 |
| 20260508080739 | 51 | 135 | 0.9 | 2.6 | 0.00 | 0.00 | 0.00 | 68 | 1015.0 |
| 20260508080235 | 50 | 152 | 0.9 | 2.6 | 0.00 | 0.00 | 0.00 | 68 | 1015.0 |
| 20260508075735 | 50 | 131 | 1.7 | 1.7 | 0.00 | 0.00 | 0.00 | 67 | 1015.0 |
| 20260508075236 | 50 | 129 | 0.0 | 0.0 | 0.00 | 0.00 | 0.00 | 67 | 1015.0 |
| 20260508074736 | 51 | 123 | 0.0 | 1.7 | 0.00 | 0.00 | 0.00 | 67 | 1015.0 |
| 20260508074235 | 51 | 137 | 0.9 | 1.7 | 0.00 | 0.00 | 0.00 | 67 | 1015.0 |
| 20260508073735 | 51 | 116 | 0.0 | 0.9 | 0.00 | 0.00 | 0.00 | 67 | 1015.0 |
| 20260508073236 | 51 | 138 | 0.0 | 1.7 | 0.00 | 0.00 | 0.00 | 66 | 1015.0 |
| 20260508072736 | 51 | 158 | 0.0 | 1.7 | 0.00 | 0.00 | 0.00 | 66 | 1015.0 |
| 20260508072236 | 51 | 142 | 0.9 | 1.7 | 0.00 | 0.00 | 0.00 | 65 | 1015.0 |
| 20260508071736 | 51 | 142 | 0.0 | 0.9 | 0.00 | 0.00 | 0.00 | 65 | 1015.0 |
| 20260508071236 | 51 | 136 | 0.0 | 0.9 | 0.00 | 0.00 | 0.00 | 65 | 1015.0 |
| 20260508070735 | 51 | 150 | 0.0 | 0.9 | 0.00 | 0.00 | 0.00 | 65 | 1015.0 |
| 20260508070236 | 51 | 143 | 0.0 | 0.9 | 0.00 | 0.00 | 0.00 | 65 | 1015.0 |
| 20260508065735 | 51 | 148 | 0.0 | 0.9 | 0.00 | 0.00 | 0.00 | 66 | 1015.0 |
| 20260508065235 | 51 | 151 | 0.0 | 1.7 | 0.00 | 0.00 | 0.00 | 66 | 1015.0 |
| 20260508064736 | 51 | 143 | 1.7 | 1.7 | 0.00 | 0.00 | 0.00 | 66 | 1015.0 |
| 20260508064235 | 51 | 126 | 0.9 | 1.7 | 0.00 | 0.00 | 0.00 | 66 | 1015.0 |
| 20260508063735 | 51 | 138 | 0.0 | 0.9 | 0.00 | 0.00 | 0.00 | 66 | 1015.0 |
| 20260508063235 | 51 | 147 | 0.0 | 0.9 | 0.00 | 0.00 | 0.00 | 66 | 1015.0 |
| 20260508062736 | 51 | 124 | 0.0 | 1.7 | 0.00 | 0.00 | 0.00 | 66 | 1016.0 |
| 20260508062235 | 51 | 129 | 0.0 | 0.0 | 0.00 | 0.00 | 0.00 | 66 | 1016.0 |
| 20260508061735 | 51 | 154 | 0.0 | 0.9 | 0.00 | 0.00 | 0.00 | 66 | 1016.0 |
| 20260508061236 | 51 | 150 | 0.9 | 0.9 | 0.00 | 0.00 | 0.00 | 66 | 1016.0 |
| 20260508060735 | 51 | 115 | 0.9 | 0.9 | 0.00 | 0.00 | 0.00 | 66 | 1016.0 |
| 20260508060235 | 51 | 141 | 0.0 | 0.9 | 0.00 | 0.00 | 0.00 | 67 | 1016.0 |
| 20260508055735 | 51 | 113 | 0.0 | 0.9 | 0.00 | 0.00 | 0.00 | 67 | 1016.0 |
| 20260508055235 | 51 | 129 | 0.9 | 0.9 | 0.00 | 0.00 | 0.00 | 67 | 1016.0 |
| 20260508054735 | 51 | 142 | 0.9 | 0.9 | 0.00 | 0.00 | 0.00 | 68 | 1016.0 |
| 20260508054235 | 51 | 143 | 0.9 | 1.7 | 0.00 | 0.00 | 0.00 | 68 | 1016.0 |
| 20260508053737 | 51 | 129 | 0.0 | 1.7 | 0.00 | 0.00 | 0.00 | 68 | 1016.0 |
| 20260508053236 | 51 | 113 | 0.0 | 0.9 | 0.00 | 0.00 | 0.00 | 67 | 1016.0 |
| 20260508052735 | 51 | 129 | 0.0 | 0.9 | 0.00 | 0.00 | 0.00 | 67 | 1016.0 |
| 20260508052235 | 52 | 138 | 0.0 | 0.9 | 0.00 | 0.00 | 0.00 | 67 | 1016.0 |
| 20260508051735 | 52 | 127 | 0.9 | 0.9 | 0.00 | 0.00 | 0.00 | 68 | 1016.0 |
| 20260508051235 | 52 | 154 | 0.0 | 1.7 | 0.00 | 0.00 | 0.00 | 68 | 1016.0 |
| 20260508050735 | 52 | 143 | 0.9 | 1.7 | 0.00 | 0.00 | 0.00 | 68 | 1016.0 |
| 20260508050236 | 52 | 141 | 0.0 | 0.9 | 0.00 | 0.00 | 0.00 | 67 | 1016.0 |
| 20260508045736 | 52 | 106 | 0.0 | 0.9 | 0.00 | 0.00 | 0.00 | 67 | 1016.0 |
| 20260508045236 | 52 | 125 | 0.0 | 0.9 | 0.00 | 0.00 | 0.00 | 67 | 1016.0 |
| 20260508044736 | 51 | 117 | 0.0 | 0.0 | 0.00 | 0.00 | 0.00 | 67 | 1016.0 |
| 20260508044235 | 51 | 105 | 0.0 | 0.9 | 0.00 | 0.00 | 0.00 | 68 | 1016.0 |
| 20260508043736 | 51 | 113 | 0.0 | 1.7 | 0.00 | 0.00 | 0.00 | 70 | 1016.0 |
| 20260508043235 | 51 | 113 | 0.0 | 0.9 | 0.00 | 0.00 | 0.00 | 70 | 1016.0 |
| 20260508042735 | 51 | 141 | 0.0 | 0.9 | 0.00 | 0.00 | 0.00 | 70 | 1016.0 |
| 20260508042235 | 51 | 149 | 0.0 | 1.7 | 0.00 | 0.00 | 0.00 | 70 | 1016.0 |
| 20260508041735 | 51 | 205 | 0.0 | 1.7 | 0.00 | 0.00 | 0.00 | 71 | 1016.0 |
| 20260508041236 | 51 | 147 | 0.9 | 1.7 | 0.00 | 0.00 | 0.00 | 70 | 1016.0 |
| 20260508040737 | 51 | 124 | 0.0 | 0.9 | 0.00 | 0.00 | 0.00 | 70 | 1016.0 |
| 20260508040236 | 52 | 215 | 0.0 | 1.7 | 0.00 | 0.00 | 0.00 | 69 | 1016.0 |
| 20260508035735 | 52 | 111 | 0.0 | 0.0 | 0.00 | 0.00 | 0.00 | 68 | 1016.0 |
| 20260508035235 | 52 | 122 | 0.0 | 0.9 | 0.00 | 0.00 | 0.00 | 67 | 1016.0 |
| 20260508034736 | 52 | 157 | 0.0 | 2.6 | 0.00 | 0.00 | 0.00 | 66 | 1016.0 |
| 20260508034236 | 53 | 110 | 0.0 | 0.9 | 0.00 | 0.00 | 0.00 | 64 | 1015.0 |
| 20260508033735 | 53 | 116 | 0.0 | 0.0 | 0.00 | 0.00 | 0.00 | 62 | 1016.0 |
| 20260508033235 | 53 | 117 | 0.0 | 0.0 | 0.00 | 0.00 | 0.00 | 62 | 1016.0 |
| 20260508032739 | 53 | 117 | 0.0 | 0.9 | 0.00 | 0.00 | 0.00 | 62 | 1016.0 |
| 20260508032237 | 54 | 129 | 0.0 | 0.9 | 0.00 | 0.00 | 0.00 | 61 | 1016.0 |
| 20260508031736 | 54 | 224 | 0.0 | 1.7 | 0.00 | 0.00 | 0.00 | 61 | 1016.0 |
| 20260508031236 | 54 | 154 | 0.9 | 2.6 | 0.00 | 0.00 | 0.00 | 61 | 1016.0 |
| 20260508030736 | 54 | 147 | 0.0 | 0.9 | 0.00 | 0.00 | 0.00 | 60 | 1016.0 |
| 20260508030235 | 54 | 135 | 0.0 | 0.9 | 0.00 | 0.00 | 0.00 | 59 | 1016.0 |
| 20260508025735 | 54 | 25 | 0.0 | 0.0 | 0.00 | 0.00 | 0.00 | 59 | 1016.0 |
| 20260508025235 | 55 | 230 | 0.0 | 0.0 | 0.00 | 0.00 | 0.00 | 57 | 1016.0 |
| 20260508024735 | 55 | 230 | 0.0 | 0.0 | 0.00 | 0.00 | 0.00 | 56 | 1016.0 |
| 20260508024235 | 55 | 230 | 0.0 | 0.0 | 0.00 | 0.00 | 0.00 | 56 | 1016.0 |
| 20260508023736 | 56 | 230 | 0.0 | 0.0 | 0.00 | 0.00 | 0.00 | 55 | 1016.0 |
| 20260508023236 | 56 | 129 | 0.0 | 0.0 | 0.00 | 0.00 | 0.00 | 55 | 1016.0 |
| 20260508022735 | 57 | 326 | 0.0 | 0.0 | 0.00 | 0.00 | 0.00 | 54 | 1016.0 |
| 20260508022236 | 57 | 326 | 0.0 | 0.0 | 0.00 | 0.00 | 0.00 | 53 | 1016.0 |
| 20260508021735 | 58 | 326 | 0.0 | 0.0 | 0.00 | 0.00 | 0.00 | 51 | 1016.0 |
| 20260508021235 | 58 | 309 | 0.0 | 0.9 | 0.00 | 0.00 | 0.00 | 51 | 1016.0 |
| 20260508020736 | 58 | 129 | 0.0 | 0.0 | 0.00 | 0.00 | 0.00 | 50 | 1016.0 |
| 20260508020235 | 58 | 143 | 0.0 | 0.9 | 0.00 | 0.00 | 0.00 | 49 | 1016.0 |
| 20260508015736 | 59 | 146 | 0.0 | 1.7 | 0.00 | 0.00 | 0.00 | 48 | 1016.0 |
| 20260508015235 | 59 | 147 | 0.0 | 0.0 | 0.00 | 0.00 | 0.00 | 47 | 1015.0 |
| 20260508014736 | 59 | 142 | 0.0 | 0.0 | 0.00 | 0.00 | 0.00 | 47 | 1015.0 |
| 20260508014238 | 59 | 135 | 0.0 | 0.9 | 0.00 | 0.00 | 0.00 | 47 | 1015.0 |
| 20260508013737 | 59 | 217 | 0.0 | 0.0 | 0.00 | 0.00 | 0.00 | 47 | 1015.0 |
| 20260508013236 | 59 | 129 | 0.0 | 0.0 | 0.00 | 0.00 | 0.00 | 48 | 1015.0 |
| 20260508012735 | 60 | 139 | 0.9 | 0.9 | 0.00 | 0.00 | 0.00 | 47 | 1015.0 |
| 20260508012237 | 60 | 135 | 0.0 | 0.9 | 0.00 | 0.00 | 0.00 | 46 | 1015.0 |
| 20260508011735 | 61 | 117 | 0.0 | 0.9 | 0.00 | 0.00 | 0.00 | 46 | 1015.0 |
| 20260508011236 | 61 | 142 | 0.0 | 0.0 | 0.00 | 0.00 | 0.00 | 46 | 1015.0 |
| 20260508010735 | 62 | 135 | 0.0 | 0.9 | 0.00 | 0.00 | 0.00 | 44 | 1015.0 |
| 20260508010235 | 62 | 219 | 0.0 | 0.0 | 0.00 | 0.00 | 0.00 | 41 | 1015.0 |
| 20260508005736 | 63 | 242 | 0.0 | 0.9 | 0.00 | 0.00 | 0.00 | 40 | 1015.0 |
| 20260508005236 | 64 | 227 | 0.0 | 0.0 | 0.00 | 0.00 | 0.00 | 38 | 1015.0 |
| 20260508004735 | 64 | 246 | 0.0 | 0.9 | 0.00 | 0.00 | 0.00 | 38 | 1015.0 |
| 20260508004237 | 64 | 224 | 0.0 | 0.0 | 0.00 | 0.00 | 0.00 | 38 | 1015.0 |
| 20260508003735 | 64 | 154 | 0.0 | 0.9 | 0.00 | 0.00 | 0.00 | 37 | 1015.0 |
| 20260508003236 | 65 | 157 | 0.0 | 1.7 | 0.00 | 0.00 | 0.00 | 37 | 1015.0 |
| 20260508002736 | 65 | 241 | 0.0 | 1.7 | 0.00 | 0.00 | 0.00 | 37 | 1015.0 |
| 20260508002235 | 65 | 245 | 0.9 | 0.9 | 0.00 | 0.00 | 0.00 | 36 | 1015.0 |
| 20260508001735 | 66 | 225 | 0.9 | 0.9 | 0.00 | 0.00 | 0.00 | 37 | 1015.0 |
| 20260508001236 | 66 | 222 | 0.0 | 1.7 | 0.00 | 0.00 | 0.00 | 36 | 1015.0 |
| 20260508000735 | 66 | 257 | 0.9 | 2.6 | 0.00 | 0.00 | 0.00 | 35 | 1015.0 |
| 20260508000235 | 66 | 233 | 1.7 | 1.7 | 0.00 | 0.00 | 0.00 | 35 | 1015.0 |
| 20260507235735 | 66 | 280 | 0.9 | 2.6 | 0.00 | 0.00 | 0.00 | 35 | 1015.0 |
| 20260507235236 | 66 | 212 | 0.9 | 2.6 | 0.00 | 0.00 | 0.00 | 35 | 1015.0 |
| 20260507234735 | 66 | 229 | 1.7 | 3.5 | 0.00 | 0.00 | 0.00 | 34 | 1015.0 |
| 20260507234235 | 66 | 255 | 2.6 | 3.5 | 0.00 | 0.00 | 0.00 | 34 | 1015.0 |
| 20260507233735 | 67 | 271 | 3.5 | 6.1 | 0.00 | 0.00 | 0.00 | 34 | 1015.0 |
| 20260507233235 | 67 | 280 | 2.6 | 5.2 | 0.00 | 0.00 | 0.00 | 34 | 1015.0 |
| 20260507232735 | 67 | 258 | 0.0 | 5.2 | 0.00 | 0.00 | 0.00 | 34 | 1015.0 |
| 20260507232236 | 67 | 264 | 1.7 | 3.5 | 0.00 | 0.00 | 0.00 | 33 | 1015.0 |
| 20260507231735 | 67 | 195 | 1.7 | 4.3 | 0.00 | 0.00 | 0.00 | 33 | 1015.0 |
| 20260507231235 | 67 | 248 | 2.6 | 4.3 | 0.00 | 0.00 | 0.00 | 33 | 1015.0 |
| 20260507230736 | 68 | 261 | 2.6 | 3.5 | 0.00 | 0.00 | 0.00 | 34 | 1015.0 |
| 20260507230235 | 67 | 249 | 2.6 | 4.3 | 0.00 | 0.00 | 0.00 | 33 | 1015.0 |
| 20260507225735 | 68 | 272 | 4.3 | 4.3 | 0.00 | 0.00 | 0.00 | 33 | 1015.0 |
| 20260507225236 | 68 | 251 | 0.9 | 4.3 | 0.00 | 0.00 | 0.00 | 32 | 1015.0 |
| 20260507224736 | 68 | 324 | 2.6 | 4.3 | 0.00 | 0.00 | 0.00 | 32 | 1015.0 |
| 20260507224235 | 68 | 261 | 0.9 | 2.6 | 0.00 | 0.00 | 0.00 | 32 | 1016.0 |
| 20260507223735 | 68 | 230 | 0.9 | 3.5 | 0.00 | 0.00 | 0.00 | 34 | 1015.0 |
| 20260507223236 | 67 | 243 | 2.6 | 4.3 | 0.00 | 0.00 | 0.00 | 34 | 1016.0 |
| 20260507222736 | 67 | 218 | 0.0 | 3.5 | 0.00 | 0.00 | 0.00 | 33 | 1016.0 |
| 20260507222236 | 68 | 225 | 3.5 | 6.1 | 0.00 | 0.00 | 0.00 | 32 | 1016.0 |
| 20260507221735 | 67 | 241 | 2.6 | 3.5 | 0.00 | 0.00 | 0.00 | 33 | 1016.0 |
| 20260507221236 | 67 | 261 | 1.7 | 3.5 | 0.00 | 0.00 | 0.00 | 32 | 1016.0 |
| 20260507220735 | 67 | 235 | 0.9 | 3.5 | 0.00 | 0.00 | 0.00 | 33 | 1016.0 |
| 20260507220236 | 66 | 219 | 1.7 | 3.5 | 0.00 | 0.00 | 0.00 | 34 | 1016.0 |
| 20260507215735 | 66 | 261 | 3.5 | 4.3 | 0.00 | 0.00 | 0.00 | 33 | 1016.0 |
| 20260507215235 | 66 | 265 | 1.7 | 3.5 | 0.00 | 0.00 | 0.00 | 33 | 1016.0 |
| 20260507214735 | 68 | 267 | 5.2 | 8.7 | 0.00 | 0.00 | 0.00 | 32 | 1016.0 |
| 20260507214235 | 68 | 247 | 1.7 | 4.3 | 0.00 | 0.00 | 0.00 | 34 | 1016.0 |
| 20260507213742 | 68 | 217 | 2.6 | 4.3 | 0.00 | 0.00 | 0.00 | 33 | 1016.0 |
| 20260507213235 | 67 | 253 | 1.7 | 3.5 | 0.00 | 0.00 | 0.00 | 34 | 1016.0 |
| 20260507212736 | 69 | 226 | 2.6 | 5.2 | 0.00 | 0.00 | 0.00 | 33 | 1016.0 |
| 20260507212236 | 67 | 235 | 0.9 | 2.6 | 0.00 | 0.00 | 0.00 | 34 | 1016.0 |
| 20260507211736 | 66 | 221 | 0.9 | 3.5 | 0.00 | 0.00 | 0.00 | 34 | 1016.0 |
| 20260507211237 | 67 | 246 | 5.2 | 6.1 | 0.00 | 0.00 | 0.00 | 32 | 1016.0 |
| 20260507210736 | 66 | 273 | 1.7 | 3.5 | 0.00 | 0.00 | 0.00 | 34 | 1016.0 |
| 20260507210235 | 66 | 250 | 1.7 | 3.5 | 0.00 | 0.00 | 0.00 | 33 | 1016.0 |
| 20260507205735 | 66 | 254 | 4.3 | 5.2 | 0.00 | 0.00 | 0.00 | 33 | 1016.0 |
| 20260507205236 | 66 | 273 | 3.5 | 4.3 | 0.00 | 0.00 | 0.00 | 34 | 1017.0 |
| 20260507204736 | 67 | 230 | 0.9 | 4.3 | 0.00 | 0.00 | 0.00 | 33 | 1017.0 |
| 20260507204235 | 64 | 265 | 2.6 | 3.5 | 0.00 | 0.00 | 0.00 | 33 | 1017.0 |
| 20260507203736 | 65 | 225 | 0.9 | 4.3 | 0.00 | 0.00 | 0.00 | 35 | 1017.0 |
| 20260507203235 | 66 | 226 | 1.7 | 4.3 | 0.00 | 0.00 | 0.00 | 33 | 1017.0 |
| 20260507202736 | 65 | 267 | 4.3 | 5.2 | 0.00 | 0.00 | 0.00 | 32 | 1017.0 |
| 20260507202236 | 65 | 269 | 4.3 | 7.0 | 0.00 | 0.00 | 0.00 | 33 | 1017.0 |
| 20260507201736 | 65 | 277 | 3.5 | 4.3 | 0.00 | 0.00 | 0.00 | 34 | 1017.0 |
| 20260507201235 | 65 | 295 | 3.5 | 3.5 | 0.00 | 0.00 | 0.00 | 33 | 1017.0 |
| 20260507200736 | 65 | 247 | 1.7 | 4.3 | 0.00 | 0.00 | 0.00 | 34 | 1017.0 |
| 20260507200236 | 65 | 232 | 1.7 | 3.5 | 0.00 | 0.00 | 0.00 | 34 | 1017.0 |
| 20260507195736 | 65 | 288 | 1.7 | 3.5 | 0.00 | 0.00 | 0.00 | 36 | 1017.0 |
| 20260507195237 | 65 | 203 | 0.9 | 3.5 | 0.00 | 0.00 | 0.00 | 37 | 1017.0 |
| 20260507194735 | 64 | 253 | 0.0 | 0.9 | 0.00 | 0.00 | 0.00 | 35 | 1017.0 |
| 20260507194238 | 65 | 167 | 1.7 | 1.7 | 0.00 | 0.00 | 0.00 | 35 | 1017.0 |
| 20260507193737 | 65 | 232 | 1.7 | 5.2 | 0.00 | 0.00 | 0.00 | 35 | 1017.0 |
| 20260507193235 | 65 | 278 | 5.2 | 5.2 | 0.00 | 0.00 | 0.00 | 33 | 1017.0 |
| 20260507192740 | 64 | 235 | 4.3 | 6.1 | 0.00 | 0.00 | 0.00 | 33 | 1017.0 |
| 20260507192236 | 64 | 243 | 0.0 | 5.2 | 0.00 | 0.00 | 0.00 | 33 | 1017.0 |
| 20260507191735 | 64 | 242 | 3.5 | 6.1 | 0.00 | 0.00 | 0.00 | 34 | 1018.0 |
| 20260507191235 | 65 | 252 | 1.7 | 5.2 | 0.00 | 0.00 | 0.00 | 33 | 1018.0 |
| 20260507190737 | 65 | 229 | 3.5 | 5.2 | 0.00 | 0.00 | 0.00 | 34 | 1018.0 |
| 20260507190237 | 64 | 279 | 4.3 | 4.3 | 0.00 | 0.00 | 0.00 | 34 | 1018.0 |
| 20260507185736 | 64 | 229 | 1.7 | 4.3 | 0.00 | 0.00 | 0.00 | 34 | 1018.0 |
| 20260507185235 | 64 | 236 | 3.5 | 4.3 | 0.00 | 0.00 | 0.00 | 34 | 1018.0 |
| 20260507184736 | 64 | 257 | 0.9 | 6.1 | 0.00 | 0.00 | 0.00 | 34 | 1018.0 |
| 20260507184236 | 64 | 271 | 2.6 | 4.3 | 0.00 | 0.00 | 0.00 | 35 | 1018.0 |
| 20260507183736 | 63 | 259 | 6.1 | 6.1 | 0.00 | 0.00 | 0.00 | 34 | 1018.0 |
| 20260507183236 | 62 | 266 | 2.6 | 5.2 | 0.00 | 0.00 | 0.00 | 38 | 1018.0 |
| 20260507182736 | 62 | 169 | 0.9 | 2.6 | 0.00 | 0.00 | 0.00 | 35 | 1018.0 |
| 20260507182235 | 63 | 268 | 4.3 | 6.1 | 0.00 | 0.00 | 0.00 | 35 | 1018.0 |
| 20260507181736 | 63 | 252 | 0.9 | 4.3 | 0.00 | 0.00 | 0.00 | 34 | 1018.0 |
| 20260507181236 | 63 | 256 | 1.7 | 3.5 | 0.00 | 0.00 | 0.00 | 37 | 1018.0 |
| 20260507180736 | 63 | 269 | 4.3 | 5.2 | 0.00 | 0.00 | 0.00 | 40 | 1018.0 |